sensor_id;sensor_type;location;lat;lon;timestamp;temperature;humidity
58339;DHT22;68636;52.704;6.536;2023-06-10T00:01:48;17.70;88.20
58339;DHT22;68636;52.704;6.536;2023-06-10T00:04:14;17.70;88.50
58339;DHT22;68636;52.704;6.536;2023-06-10T00:06:41;17.70;88.30
58339;DHT22;68636;52.704;6.536;2023-06-10T00:09:07;17.70;88.40
58339;DHT22;68636;52.704;6.536;2023-06-10T00:11:37;17.70;88.30
58339;DHT22;68636;52.704;6.536;2023-06-10T00:14:03;17.60;88.30
58339;DHT22;68636;52.704;6.536;2023-06-10T00:16:29;17.60;88.40
58339;DHT22;68636;52.704;6.536;2023-06-10T00:18:56;17.60;88.30
58339;DHT22;68636;52.704;6.536;2023-06-10T00:21:29;17.50;88.30
58339;DHT22;68636;52.704;6.536;2023-06-10T00:23:55;17.50;88.40
58339;DHT22;68636;52.704;6.536;2023-06-10T00:26:24;17.50;88.40
58339;DHT22;68636;52.704;6.536;2023-06-10T00:28:51;17.40;88.50
58339;DHT22;68636;52.704;6.536;2023-06-10T00:31:17;17.40;88.60
58339;DHT22;68636;52.704;6.536;2023-06-10T00:33:43;17.40;88.60
58339;DHT22;68636;52.704;6.536;2023-06-10T00:36:09;17.40;88.80
58339;DHT22;68636;52.704;6.536;2023-06-10T00:38:35;17.40;88.90
58339;DHT22;68636;52.704;6.536;2023-06-10T00:41:01;17.30;88.90
58339;DHT22;68636;52.704;6.536;2023-06-10T00:43:27;17.30;89.00
58339;DHT22;68636;52.704;6.536;2023-06-10T00:45:53;17.30;89.10
58339;DHT22;68636;52.704;6.536;2023-06-10T00:48:19;17.20;89.30
58339;DHT22;68636;52.704;6.536;2023-06-10T00:50:48;17.20;89.40
58339;DHT22;68636;52.704;6.536;2023-06-10T00:53:14;17.10;89.70
58339;DHT22;68636;52.704;6.536;2023-06-10T00:55:41;17.10;89.80
58339;DHT22;68636;52.704;6.536;2023-06-10T00:58:06;17.10;90.00
58339;DHT22;68636;52.704;6.536;2023-06-10T01:00:32;17.00;90.60
58339;DHT22;68636;52.704;6.536;2023-06-10T01:02:58;17.00;90.20
58339;DHT22;68636;52.704;6.536;2023-06-10T01:05:24;16.90;90.30
58339;DHT22;68636;52.704;6.536;2023-06-10T01:11:00;16.90;90.80
58339;DHT22;68636;52.704;6.536;2023-06-10T01:13:27;16.80;90.90
58339;DHT22;68636;52.704;6.536;2023-06-10T01:15:57;16.80;91.00
58339;DHT22;68636;52.704;6.536;2023-06-10T01:18:29;16.80;91.20
58339;DHT22;68636;52.704;6.536;2023-06-10T01:20:56;16.80;91.30
58339;DHT22;68636;52.704;6.536;2023-06-10T01:23:22;16.80;91.40
58339;DHT22;68636;52.704;6.536;2023-06-10T01:26:01;16.70;91.50
58339;DHT22;68636;52.704;6.536;2023-06-10T01:28:49;16.70;91.70
58339;DHT22;68636;52.704;6.536;2023-06-10T01:34:06;16.60;92.10
58339;DHT22;68636;52.704;6.536;2023-06-10T01:36:35;16.60;92.10
58339;DHT22;68636;52.704;6.536;2023-06-10T01:39:02;16.60;92.50
58339;DHT22;68636;52.704;6.536;2023-06-10T01:41:29;16.60;92.80
58339;DHT22;68636;52.704;6.536;2023-06-10T01:43:56;16.60;92.90
58339;DHT22;68636;52.704;6.536;2023-06-10T01:46:22;16.50;93.10
58339;DHT22;68636;52.704;6.536;2023-06-10T01:48:48;16.50;93.30
58339;DHT22;68636;52.704;6.536;2023-06-10T01:51:14;16.50;93.40
58339;DHT22;68636;52.704;6.536;2023-06-10T01:53:39;16.50;93.60
58339;DHT22;68636;52.704;6.536;2023-06-10T01:56:05;16.50;93.80
58339;DHT22;68636;52.704;6.536;2023-06-10T01:58:31;16.40;93.90
58339;DHT22;68636;52.704;6.536;2023-06-10T02:00:56;16.40;94.20
58339;DHT22;68636;52.704;6.536;2023-06-10T02:03:22;16.30;94.40
58339;DHT22;68636;52.704;6.536;2023-06-10T02:05:48;16.30;94.70
58339;DHT22;68636;52.704;6.536;2023-06-10T02:08:14;16.30;95.00
58339;DHT22;68636;52.704;6.536;2023-06-10T02:10:40;16.30;95.80
58339;DHT22;68636;52.704;6.536;2023-06-10T02:13:06;16.20;95.40
58339;DHT22;68636;52.704;6.536;2023-06-10T02:15:32;16.10;96.40
58339;DHT22;68636;52.704;6.536;2023-06-10T02:17:58;16.10;96.10
58339;DHT22;68636;52.704;6.536;2023-06-10T02:20:25;16.00;96.40
58339;DHT22;68636;52.704;6.536;2023-06-10T02:22:51;16.00;99.20
58339;DHT22;68636;52.704;6.536;2023-06-10T02:25:17;16.00;98.20
58339;DHT22;68636;52.704;6.536;2023-06-10T02:27:43;15.90;97.80
58339;DHT22;68636;52.704;6.536;2023-06-10T02:30:09;15.90;98.90
58339;DHT22;68636;52.704;6.536;2023-06-10T02:32:38;15.90;98.70
58339;DHT22;68636;52.704;6.536;2023-06-10T02:35:04;15.90;99.90
58339;DHT22;68636;52.704;6.536;2023-06-10T02:37:30;15.80;99.60
58339;DHT22;68636;52.704;6.536;2023-06-10T02:39:55;15.80;99.50
58339;DHT22;68636;52.704;6.536;2023-06-10T02:42:21;15.80;99.60
58339;DHT22;68636;52.704;6.536;2023-06-10T02:44:47;15.70;99.90
58339;DHT22;68636;52.704;6.536;2023-06-10T02:47:12;15.70;99.90
58339;DHT22;68636;52.704;6.536;2023-06-10T02:49:38;15.70;99.90
58339;DHT22;68636;52.704;6.536;2023-06-10T02:52:04;15.60;99.90
58339;DHT22;68636;52.704;6.536;2023-06-10T02:54:30;15.60;99.90
58339;DHT22;68636;52.704;6.536;2023-06-10T02:56:55;15.50;99.90
58339;DHT22;68636;52.704;6.536;2023-06-10T02:59:21;15.50;99.90
58339;DHT22;68636;52.704;6.536;2023-06-10T03:01:47;15.40;99.90
58339;DHT22;68636;52.704;6.536;2023-06-10T03:04:13;15.40;99.90
58339;DHT22;68636;52.704;6.536;2023-06-10T03:06:40;15.40;99.90
58339;DHT22;68636;52.704;6.536;2023-06-10T03:09:06;15.40;99.90
58339;DHT22;68636;52.704;6.536;2023-06-10T03:11:35;15.40;99.90
58339;DHT22;68636;52.704;6.536;2023-06-10T03:14:01;15.30;99.90
58339;DHT22;68636;52.704;6.536;2023-06-10T03:16:27;15.30;99.90
58339;DHT22;68636;52.704;6.536;2023-06-10T03:18:53;15.30;99.90
58339;DHT22;68636;52.704;6.536;2023-06-10T03:21:19;15.30;99.90
58339;DHT22;68636;52.704;6.536;2023-06-10T03:23:45;15.30;99.90
58339;DHT22;68636;52.704;6.536;2023-06-10T03:26:11;15.30;99.90
58339;DHT22;68636;52.704;6.536;2023-06-10T03:28:41;15.30;99.90
58339;DHT22;68636;52.704;6.536;2023-06-10T03:31:07;15.30;99.90
58339;DHT22;68636;52.704;6.536;2023-06-10T03:33:33;15.20;99.90
58339;DHT22;68636;52.704;6.536;2023-06-10T03:35:59;15.20;99.90
58339;DHT22;68636;52.704;6.536;2023-06-10T03:38:25;15.20;99.90
58339;DHT22;68636;52.704;6.536;2023-06-10T03:40:51;15.20;99.90
58339;DHT22;68636;52.704;6.536;2023-06-10T03:43:16;15.20;99.90
58339;DHT22;68636;52.704;6.536;2023-06-10T03:45:42;15.40;99.90
58339;DHT22;68636;52.704;6.536;2023-06-10T03:48:08;15.40;99.90
58339;DHT22;68636;52.704;6.536;2023-06-10T03:50:34;15.40;99.90
58339;DHT22;68636;52.704;6.536;2023-06-10T03:53:01;15.50;99.90
58339;DHT22;68636;52.704;6.536;2023-06-10T03:55:27;15.40;99.90
58339;DHT22;68636;52.704;6.536;2023-06-10T03:57:53;15.40;99.90
58339;DHT22;68636;52.704;6.536;2023-06-10T04:00:19;15.40;99.90
58339;DHT22;68636;52.704;6.536;2023-06-10T04:02:47;15.40;99.90
58339;DHT22;68636;52.704;6.536;2023-06-10T04:05:18;15.30;99.90
58339;DHT22;68636;52.704;6.536;2023-06-10T04:07:47;15.40;99.90
58339;DHT22;68636;52.704;6.536;2023-06-10T04:10:14;15.40;99.90
58339;DHT22;68636;52.704;6.536;2023-06-10T04:12:41;15.40;99.90
58339;DHT22;68636;52.704;6.536;2023-06-10T04:15:07;15.40;99.90
58339;DHT22;68636;52.704;6.536;2023-06-10T04:17:33;15.40;99.90
58339;DHT22;68636;52.704;6.536;2023-06-10T04:19:59;15.40;99.90
58339;DHT22;68636;52.704;6.536;2023-06-10T04:22:26;15.40;99.90
58339;DHT22;68636;52.704;6.536;2023-06-10T04:24:52;15.40;99.90
58339;DHT22;68636;52.704;6.536;2023-06-10T04:27:18;15.40;99.90
58339;DHT22;68636;52.704;6.536;2023-06-10T04:29:44;15.50;99.90
58339;DHT22;68636;52.704;6.536;2023-06-10T04:32:10;15.50;99.90
58339;DHT22;68636;52.704;6.536;2023-06-10T04:34:36;15.50;99.90
58339;DHT22;68636;52.704;6.536;2023-06-10T04:37:05;15.60;99.90
58339;DHT22;68636;52.704;6.536;2023-06-10T04:39:32;15.60;99.90
58339;DHT22;68636;52.704;6.536;2023-06-10T04:41:59;15.60;99.90
58339;DHT22;68636;52.704;6.536;2023-06-10T04:44:24;15.70;99.90
58339;DHT22;68636;52.704;6.536;2023-06-10T04:46:50;15.70;99.90
58339;DHT22;68636;52.704;6.536;2023-06-10T04:49:16;15.80;99.90
58339;DHT22;68636;52.704;6.536;2023-06-10T04:51:42;15.80;99.90
58339;DHT22;68636;52.704;6.536;2023-06-10T04:54:07;15.80;99.90
58339;DHT22;68636;52.704;6.536;2023-06-10T04:56:33;15.90;99.90
58339;DHT22;68636;52.704;6.536;2023-06-10T04:58:59;15.90;99.90
58339;DHT22;68636;52.704;6.536;2023-06-10T05:01:25;15.90;99.90
58339;DHT22;68636;52.704;6.536;2023-06-10T05:03:51;15.90;99.90
58339;DHT22;68636;52.704;6.536;2023-06-10T05:06:17;16.00;99.90
58339;DHT22;68636;52.704;6.536;2023-06-10T05:08:43;16.00;99.90
58339;DHT22;68636;52.704;6.536;2023-06-10T05:11:09;16.10;99.90
58339;DHT22;68636;52.704;6.536;2023-06-10T05:13:35;16.10;99.90
58339;DHT22;68636;52.704;6.536;2023-06-10T05:16:01;16.10;99.90
58339;DHT22;68636;52.704;6.536;2023-06-10T05:18:27;16.20;99.90
58339;DHT22;68636;52.704;6.536;2023-06-10T05:20:52;16.20;99.90
58339;DHT22;68636;52.704;6.536;2023-06-10T05:23:20;16.30;99.90
58339;DHT22;68636;52.704;6.536;2023-06-10T05:25:45;16.30;99.90
58339;DHT22;68636;52.704;6.536;2023-06-10T05:28:11;16.30;99.90
58339;DHT22;68636;52.704;6.536;2023-06-10T05:30:37;16.40;99.90
58339;DHT22;68636;52.704;6.536;2023-06-10T05:33:04;16.40;99.90
58339;DHT22;68636;52.704;6.536;2023-06-10T05:35:30;16.40;99.90
58339;DHT22;68636;52.704;6.536;2023-06-10T05:37:56;16.50;99.90
58339;DHT22;68636;52.704;6.536;2023-06-10T05:40:22;16.70;99.90
58339;DHT22;68636;52.704;6.536;2023-06-10T05:42:47;16.60;99.90
58339;DHT22;68636;52.704;6.536;2023-06-10T05:45:13;16.80;99.90
58339;DHT22;68636;52.704;6.536;2023-06-10T05:47:39;16.70;99.90
58339;DHT22;68636;52.704;6.536;2023-06-10T05:50:05;16.60;99.90
58339;DHT22;68636;52.704;6.536;2023-06-10T05:52:33;16.70;99.90
58339;DHT22;68636;52.704;6.536;2023-06-10T05:54:59;16.80;99.90
58339;DHT22;68636;52.704;6.536;2023-06-10T05:57:25;16.80;99.90
58339;DHT22;68636;52.704;6.536;2023-06-10T05:59:51;16.90;99.90
58339;DHT22;68636;52.704;6.536;2023-06-10T06:02:17;16.80;99.90
58339;DHT22;68636;52.704;6.536;2023-06-10T06:04:43;16.80;99.90
58339;DHT22;68636;52.704;6.536;2023-06-10T06:07:09;16.80;99.90
58339;DHT22;68636;52.704;6.536;2023-06-10T06:09:34;16.90;99.90
58339;DHT22;68636;52.704;6.536;2023-06-10T06:12:00;17.00;99.90
58339;DHT22;68636;52.704;6.536;2023-06-10T06:14:26;17.00;99.90
58339;DHT22;68636;52.704;6.536;2023-06-10T06:16:51;17.00;99.90
58339;DHT22;68636;52.704;6.536;2023-06-10T06:19:17;17.10;99.90
58339;DHT22;68636;52.704;6.536;2023-06-10T06:21:43;17.10;99.90
58339;DHT22;68636;52.704;6.536;2023-06-10T06:24:09;17.20;99.90
58339;DHT22;68636;52.704;6.536;2023-06-10T06:26:35;17.30;99.90
58339;DHT22;68636;52.704;6.536;2023-06-10T06:29:00;17.50;99.90
58339;DHT22;68636;52.704;6.536;2023-06-10T06:31:26;17.50;99.90
58339;DHT22;68636;52.704;6.536;2023-06-10T06:33:52;17.80;99.90
58339;DHT22;68636;52.704;6.536;2023-06-10T06:36:17;17.90;99.90
58339;DHT22;68636;52.704;6.536;2023-06-10T06:38:43;18.00;99.90
58339;DHT22;68636;52.704;6.536;2023-06-10T06:41:09;18.10;99.90
58339;DHT22;68636;52.704;6.536;2023-06-10T06:43:35;18.20;99.90
58339;DHT22;68636;52.704;6.536;2023-06-10T06:46:00;18.20;99.90
58339;DHT22;68636;52.704;6.536;2023-06-10T06:48:26;18.30;99.90
58339;DHT22;68636;52.704;6.536;2023-06-10T06:50:52;18.30;99.90
58339;DHT22;68636;52.704;6.536;2023-06-10T06:53:18;18.20;99.90
58339;DHT22;68636;52.704;6.536;2023-06-10T06:55:43;18.20;99.90
58339;DHT22;68636;52.704;6.536;2023-06-10T06:58:09;18.30;99.90
58339;DHT22;68636;52.704;6.536;2023-06-10T07:00:35;18.50;99.90
58339;DHT22;68636;52.704;6.536;2023-06-10T07:03:01;18.40;99.90
58339;DHT22;68636;52.704;6.536;2023-06-10T07:05:26;18.40;99.90
58339;DHT22;68636;52.704;6.536;2023-06-10T07:07:53;18.50;99.90
58339;DHT22;68636;52.704;6.536;2023-06-10T07:10:24;18.50;99.90
58339;DHT22;68636;52.704;6.536;2023-06-10T07:12:50;18.60;99.90
58339;DHT22;68636;52.704;6.536;2023-06-10T07:15:16;18.70;99.90
58339;DHT22;68636;52.704;6.536;2023-06-10T07:17:42;18.70;99.90
58339;DHT22;68636;52.704;6.536;2023-06-10T07:20:09;18.60;99.90
58339;DHT22;68636;52.704;6.536;2023-06-10T07:22:35;18.60;99.90
58339;DHT22;68636;52.704;6.536;2023-06-10T07:25:03;18.70;99.90
58339;DHT22;68636;52.704;6.536;2023-06-10T07:27:29;18.90;99.90
58339;DHT22;68636;52.704;6.536;2023-06-10T07:29:55;18.90;99.90
58339;DHT22;68636;52.704;6.536;2023-06-10T07:32:20;19.00;99.90
58339;DHT22;68636;52.704;6.536;2023-06-10T07:34:47;19.10;99.90
58339;DHT22;68636;52.704;6.536;2023-06-10T07:37:13;19.20;99.90
58339;DHT22;68636;52.704;6.536;2023-06-10T07:39:39;19.30;99.90
58339;DHT22;68636;52.704;6.536;2023-06-10T07:42:05;19.40;99.90
58339;DHT22;68636;52.704;6.536;2023-06-10T07:44:31;19.60;99.90
58339;DHT22;68636;52.704;6.536;2023-06-10T07:46:57;19.60;99.90
58339;DHT22;68636;52.704;6.536;2023-06-10T07:49:23;19.60;99.90
58339;DHT22;68636;52.704;6.536;2023-06-10T07:51:50;19.70;99.90
58339;DHT22;68636;52.704;6.536;2023-06-10T07:54:16;19.80;99.90
58339;DHT22;68636;52.704;6.536;2023-06-10T07:56:42;19.90;99.90
58339;DHT22;68636;52.704;6.536;2023-06-10T07:59:07;20.00;99.90
58339;DHT22;68636;52.704;6.536;2023-06-10T08:01:33;20.00;99.90
58339;DHT22;68636;52.704;6.536;2023-06-10T08:04:01;20.10;99.90
58339;DHT22;68636;52.704;6.536;2023-06-10T08:06:32;20.30;99.90
58339;DHT22;68636;52.704;6.536;2023-06-10T08:08:58;20.40;99.90
58339;DHT22;68636;52.704;6.536;2023-06-10T08:11:25;20.60;99.90
58339;DHT22;68636;52.704;6.536;2023-06-10T08:13:54;20.60;99.90
58339;DHT22;68636;52.704;6.536;2023-06-10T08:16:19;20.70;99.90
58339;DHT22;68636;52.704;6.536;2023-06-10T08:18:45;20.80;99.90
58339;DHT22;68636;52.704;6.536;2023-06-10T08:21:11;20.80;99.90
58339;DHT22;68636;52.704;6.536;2023-06-10T08:23:36;20.90;99.90
58339;DHT22;68636;52.704;6.536;2023-06-10T08:26:02;21.00;99.90
58339;DHT22;68636;52.704;6.536;2023-06-10T08:28:28;21.20;99.90
58339;DHT22;68636;52.704;6.536;2023-06-10T08:30:54;21.30;99.90
58339;DHT22;68636;52.704;6.536;2023-06-10T08:33:19;21.30;99.90
58339;DHT22;68636;52.704;6.536;2023-06-10T08:35:45;21.40;99.90
58339;DHT22;68636;52.704;6.536;2023-06-10T08:38:11;21.50;99.90
58339;DHT22;68636;52.704;6.536;2023-06-10T08:40:37;21.50;99.90
58339;DHT22;68636;52.704;6.536;2023-06-10T08:43:07;21.60;99.90
58339;DHT22;68636;52.704;6.536;2023-06-10T08:45:37;21.70;99.90
58339;DHT22;68636;52.704;6.536;2023-06-10T08:48:03;21.70;99.90
58339;DHT22;68636;52.704;6.536;2023-06-10T08:50:36;21.90;99.90
58339;DHT22;68636;52.704;6.536;2023-06-10T08:53:05;21.90;99.90
58339;DHT22;68636;52.704;6.536;2023-06-10T08:55:42;22.00;99.90
58339;DHT22;68636;52.704;6.536;2023-06-10T08:58:09;22.00;99.90
58339;DHT22;68636;52.704;6.536;2023-06-10T09:00:35;22.10;99.90
58339;DHT22;68636;52.704;6.536;2023-06-10T09:03:03;22.20;99.90
58339;DHT22;68636;52.704;6.536;2023-06-10T09:05:33;22.30;99.90
58339;DHT22;68636;52.704;6.536;2023-06-10T09:08:00;22.30;99.90
58339;DHT22;68636;52.704;6.536;2023-06-10T09:10:26;22.40;99.90
58339;DHT22;68636;52.704;6.536;2023-06-10T09:12:53;22.50;99.90
58339;DHT22;68636;52.704;6.536;2023-06-10T09:15:18;22.50;99.90
58339;DHT22;68636;52.704;6.536;2023-06-10T09:17:44;22.50;99.90
58339;DHT22;68636;52.704;6.536;2023-06-10T09:20:11;22.50;99.60
58339;DHT22;68636;52.704;6.536;2023-06-10T09:22:37;22.60;99.30
58339;DHT22;68636;52.704;6.536;2023-06-10T09:27:31;22.70;98.80
58339;DHT22;68636;52.704;6.536;2023-06-10T09:30:00;22.90;99.10
58339;DHT22;68636;52.704;6.536;2023-06-10T09:32:26;23.00;98.70
58339;DHT22;68636;52.704;6.536;2023-06-10T09:34:52;23.10;97.90
58339;DHT22;68636;52.704;6.536;2023-06-10T09:37:25;23.20;96.50
58339;DHT22;68636;52.704;6.536;2023-06-10T09:40:07;23.20;95.00
58339;DHT22;68636;52.704;6.536;2023-06-10T09:42:39;23.30;94.90
58339;DHT22;68636;52.704;6.536;2023-06-10T09:45:06;23.30;94.30
58339;DHT22;68636;52.704;6.536;2023-06-10T09:47:32;23.50;93.40
58339;DHT22;68636;52.704;6.536;2023-06-10T09:49:58;23.50;93.60
58339;DHT22;68636;52.704;6.536;2023-06-10T09:52:25;23.60;94.00
58339;DHT22;68636;52.704;6.536;2023-06-10T09:54:52;23.70;93.80
58339;DHT22;68636;52.704;6.536;2023-06-10T09:57:18;23.80;93.60
58339;DHT22;68636;52.704;6.536;2023-06-10T09:59:45;23.80;93.20
58339;DHT22;68636;52.704;6.536;2023-06-10T10:02:15;23.90;92.60
58339;DHT22;68636;52.704;6.536;2023-06-10T10:04:42;24.00;92.70
58339;DHT22;68636;52.704;6.536;2023-06-10T10:07:09;24.00;93.00
58339;DHT22;68636;52.704;6.536;2023-06-10T10:09:38;24.20;93.30
58339;DHT22;68636;52.704;6.536;2023-06-10T10:12:12;24.20;92.50
58339;DHT22;68636;52.704;6.536;2023-06-10T10:14:38;24.20;92.40
58339;DHT22;68636;52.704;6.536;2023-06-10T10:17:10;24.20;91.80
58339;DHT22;68636;52.704;6.536;2023-06-10T10:19:53;24.20;91.60
58339;DHT22;68636;52.704;6.536;2023-06-10T10:22:25;24.10;90.40
58339;DHT22;68636;52.704;6.536;2023-06-10T10:25:02;24.00;90.30
58339;DHT22;68636;52.704;6.536;2023-06-10T10:27:35;24.20;91.20
58339;DHT22;68636;52.704;6.536;2023-06-10T10:30:02;24.20;89.60
58339;DHT22;68636;52.704;6.536;2023-06-10T10:33:04;24.30;89.70
58339;DHT22;68636;52.704;6.536;2023-06-10T10:35:32;24.50;90.40
58339;DHT22;68636;52.704;6.536;2023-06-10T10:37:58;24.50;90.50
58339;DHT22;68636;52.704;6.536;2023-06-10T10:40:26;24.60;89.80
58339;DHT22;68636;52.704;6.536;2023-06-10T10:42:56;24.70;88.40
58339;DHT22;68636;52.704;6.536;2023-06-10T10:45:22;24.70;89.50
58339;DHT22;68636;52.704;6.536;2023-06-10T10:47:52;24.50;88.20
58339;DHT22;68636;52.704;6.536;2023-06-10T10:50:20;24.90;96.20
58339;DHT22;68636;52.704;6.536;2023-06-10T10:52:54;25.00;94.50
58339;DHT22;68636;52.704;6.536;2023-06-10T10:55:24;25.10;92.50
58339;DHT22;68636;52.704;6.536;2023-06-10T10:58:17;25.00;94.30
58339;DHT22;68636;52.704;6.536;2023-06-10T11:03:16;25.60;94.30
58339;DHT22;68636;52.704;6.536;2023-06-10T11:05:43;25.50;94.80
58339;DHT22;68636;52.704;6.536;2023-06-10T11:08:13;25.50;94.30
